Time;durP1;ratioP1;P1;durP2;ratioP2;P2;SDS_P1;SDS_P2;PMS_P1;PMS_P2;Temp;Humidity;BMP_temperature;BMP_pressure;BME280_temperature;BME280_humidity;BME280_pressure;Samples;Min_cycle;Max_cycle;Signal;HPM_P1;HPM_P2
2021/08/04 00:01:38;;;;;;;3.60;2.15;;;;;;;-144.51;100.00;69251.94;4987015;28;20034;-68
2021/08/04 00:04:23;;;;;;;2.38;1.70;;;;;;;-144.51;100.00;69251.94;4979301;28;20068;-68
2021/08/04 00:07:08;;;;;;;7.43;2.25;;;;;;;-144.51;100.00;69251.94;4978369;28;20035;-68
2021/08/04 00:09:53;;;;;;;7.35;2.65;;;;;;;-144.51;100.00;69251.94;4979934;28;20042;-68
2021/08/04 00:12:38;;;;;;;8.75;2.40;;;;;;;-144.51;100.00;69251.94;4985008;28;20038;-68
2021/08/04 00:15:23;;;;;;;3.55;1.95;;;;;;;-144.51;100.00;69251.94;4991077;28;20046;-68
2021/08/04 00:18:09;;;;;;;3.25;2.00;;;;;;;-144.51;100.00;69251.94;4997363;28;20042;-68
2021/08/04 00:20:53;;;;;;;4.97;2.17;;;;;;;-144.51;100.00;69251.94;4997909;28;20046;-68
2021/08/04 00:23:38;;;;;;;4.55;2.03;;;;;;;-144.51;100.00;69251.94;4992336;28;20049;-68
2021/08/04 00:26:23;;;;;;;4.15;1.70;;;;;;;-144.51;100.00;69251.94;4994554;28;20050;-68
2021/08/04 00:29:08;;;;;;;5.60;1.75;;;;;;;-144.51;100.00;69251.94;4998074;28;20499;-68
2021/08/04 00:31:53;;;;;;;5.28;2.17;;;;;;;-144.51;100.00;69251.94;4990991;28;20504;-68
2021/08/04 00:34:38;;;;;;;8.13;2.85;;;;;;;-144.51;100.00;69251.94;4978846;28;20043;-68
2021/08/04 00:37:23;;;;;;;3.42;2.03;;;;;;;-144.51;100.00;69251.94;4985483;28;20416;-68
2021/08/04 00:40:09;;;;;;;7.65;2.10;;;;;;;-144.51;100.00;69251.94;4967928;28;20077;-68
2021/08/04 00:42:57;;;;;;;6.53;2.22;;;;;;;-144.51;100.00;69251.94;4965761;28;20050;-68
2021/08/04 00:45:42;;;;;;;12.88;2.20;;;;;;;-144.51;100.00;69251.94;4982653;28;20423;-68
2021/08/04 00:48:28;;;;;;;3.83;2.40;;;;;;;-144.51;100.00;69251.94;4971342;28;20042;-68
2021/08/04 00:51:12;;;;;;;9.43;2.42;;;;;;;-144.51;100.00;69251.94;4996055;28;20047;-68
2021/08/04 00:53:57;;;;;;;9.23;2.35;;;;;;;-144.51;100.00;69251.94;4975646;28;20042;-68
2021/08/04 00:56:42;;;;;;;5.55;2.22;;;;;;;-144.51;100.00;69251.94;4980423;28;20047;-68
2021/08/04 00:59:27;;;;;;;8.27;2.33;;;;;;;-144.51;100.00;69251.94;4978315;28;20407;-67
2021/08/04 01:02:37;;;;;;;5.93;1.90;;;;;;;-144.51;100.00;69251.94;4989634;28;20043;-68
2021/08/04 01:05:26;;;;;;;4.50;2.00;;;;;;;-144.51;100.00;69251.94;4989466;28;20050;-68
2021/08/04 01:08:34;;;;;;;4.50;2.20;;;;;;;-144.51;100.00;69251.94;4985074;28;20054;-68
2021/08/04 01:11:20;;;;;;;4.10;2.33;;;;;;;-144.51;100.00;69251.94;4980648;28;20034;-68
2021/08/04 01:14:11;;;;;;;4.50;2.13;;;;;;;-144.51;100.00;69251.94;4985663;28;20551;-68
2021/08/04 01:16:56;;;;;;;5.18;2.20;;;;;;;-144.51;100.00;69251.94;4980195;28;20034;-68
2021/08/04 01:20:04;;;;;;;5.97;2.70;;;;;;;-144.51;100.00;69251.94;4980872;28;20046;-68
2021/08/04 01:22:53;;;;;;;7.95;2.30;;;;;;;-144.51;100.00;69251.94;4987496;28;20031;-68
2021/08/04 01:25:49;;;;;;;5.78;2.85;;;;;;;-144.51;100.00;69251.94;4979455;28;20496;-68
2021/08/04 01:28:36;;;;;;;8.05;3.28;;;;;;;-144.51;100.00;69251.94;4996151;28;20047;-68
2021/08/04 01:31:30;;;;;;;5.85;2.20;;;;;;;-144.51;100.00;69251.94;4987408;28;20431;-68
2021/08/04 01:34:18;;;;;;;5.40;2.83;;;;;;;-144.51;100.00;69251.94;4983640;28;20039;-68
2021/08/04 01:37:04;;;;;;;3.63;2.10;;;;;;;-144.51;100.00;69251.94;4978064;28;20042;-68
2021/08/04 01:39:50;;;;;;;4.22;2.10;;;;;;;-144.51;100.00;69251.94;4988110;28;20042;-68
2021/08/04 01:42:37;;;;;;;3.65;2.33;;;;;;;-144.51;100.00;69251.94;4989168;28;20050;-68
2021/08/04 01:45:22;;;;;;;7.65;2.95;;;;;;;-144.51;100.00;69251.94;4976237;28;20042;-68
2021/08/04 01:48:08;;;;;;;3.58;2.15;;;;;;;-144.51;100.00;69251.94;4982492;28;20038;-68
2021/08/04 01:50:56;;;;;;;3.25;2.22;;;;;;;-144.51;100.00;69251.94;4972349;28;20039;-68
2021/08/04 01:53:45;;;;;;;3.40;2.22;;;;;;;-144.51;100.00;69251.94;4989140;28;20046;-68
2021/08/04 01:56:30;;;;;;;4.97;2.33;;;;;;;-144.51;100.00;69251.94;4978139;28;20042;-68
2021/08/04 01:59:18;;;;;;;3.90;2.20;;;;;;;-144.51;100.00;69251.94;4979457;28;20038;-68
2021/08/04 02:02:23;;;;;;;5.18;2.25;;;;;;;-144.51;100.00;69251.94;4978530;28;20038;-68
2021/08/04 02:05:09;;;;;;;3.05;2.00;;;;;;;-144.51;100.00;69251.94;4994912;28;20042;-68
2021/08/04 02:08:32;;;;;;;4.10;2.00;;;;;;;-144.51;100.00;69251.94;4983323;28;20042;-67
2021/08/04 02:11:34;;;;;;;7.43;3.28;;;;;;;-144.51;100.00;69251.94;4988331;28;20038;-68
2021/08/04 02:14:46;;;;;;;5.78;2.10;;;;;;;-144.51;100.00;69251.94;4982083;28;20046;-68
2021/08/04 02:17:37;;;;;;;4.65;2.13;;;;;;;-144.51;100.00;69251.94;4987425;28;20046;-68
2021/08/04 02:20:25;;;;;;;8.40;2.20;;;;;;;-144.51;100.00;69251.94;4999540;28;20046;-68
2021/08/04 02:23:18;;;;;;;4.60;2.08;;;;;;;-144.51;100.00;69251.94;4978133;28;20053;-68
2021/08/04 02:26:22;;;;;;;5.47;2.45;;;;;;;-144.51;100.00;69251.94;4992008;28;20042;-68
2021/08/04 02:29:10;;;;;;;7.57;2.72;;;;;;;-144.51;100.00;69251.94;4987442;28;20411;-68
2021/08/04 02:31:55;;;;;;;5.50;2.33;;;;;;;-144.51;100.00;69251.94;4986482;28;20592;-68
2021/08/04 02:34:41;;;;;;;11.30;2.67;;;;;;;-144.51;100.00;69251.94;4991297;28;20050;-67
2021/08/04 02:37:28;;;;;;;9.27;2.72;;;;;;;-144.51;100.00;69251.94;4958835;28;20042;-68
2021/08/04 02:40:14;;;;;;;4.90;2.55;;;;;;;-144.51;100.00;69251.94;4974514;28;20504;-68
2021/08/04 02:43:00;;;;;;;11.60;3.20;;;;;;;-144.51;100.00;69251.94;4963000;28;20035;-68
2021/08/04 02:45:46;;;;;;;7.78;3.55;;;;;;;-144.51;100.00;69251.94;4992939;28;20038;-68
2021/08/04 02:48:33;;;;;;;4.60;2.55;;;;;;;-144.51;100.00;69251.94;4988933;28;20043;-68
2021/08/04 02:51:22;;;;;;;3.60;2.60;;;;;;;-144.51;100.00;69251.94;4990530;28;20046;-68
2021/08/04 02:54:07;;;;;;;5.93;2.92;;;;;;;-144.51;100.00;69251.94;4989419;28;20644;-68
2021/08/04 02:56:52;;;;;;;6.32;2.45;;;;;;;-144.51;100.00;69251.94;4996303;28;20054;-68
2021/08/04 02:59:37;;;;;;;7.07;2.47;;;;;;;-144.51;100.00;69251.94;4965078;28;20043;-67
2021/08/04 03:02:22;;;;;;;5.88;2.60;;;;;;;-144.51;100.00;69251.94;4979205;28;20041;-67
2021/08/04 03:05:08;;;;;;;8.43;2.67;;;;;;;-144.51;100.00;69251.94;4971613;28;20039;-68
2021/08/04 03:07:53;;;;;;;4.32;2.10;;;;;;;-144.51;100.00;69251.94;4982995;28;20503;-68
2021/08/04 03:10:38;;;;;;;4.25;2.53;;;;;;;-144.51;100.00;69251.94;4976134;28;20047;-68
2021/08/04 03:13:23;;;;;;;8.98;3.15;;;;;;;-144.51;100.00;69251.94;4983884;28;20046;-68
2021/08/04 03:16:08;;;;;;;4.40;2.38;;;;;;;-144.51;100.00;69251.94;4985740;28;20038;-68
2021/08/04 03:18:53;;;;;;;9.07;2.45;;;;;;;-144.51;100.00;69251.94;4982732;28;20038;-68
2021/08/04 03:21:38;;;;;;;5.53;3.33;;;;;;;-144.51;100.00;69251.94;4991993;28;20042;-68
2021/08/04 03:24:23;;;;;;;3.80;2.38;;;;;;;-144.51;100.00;69251.94;4979883;28;20039;-68
2021/08/04 03:27:09;;;;;;;4.30;2.58;;;;;;;-144.51;100.00;69251.94;4994594;28;20416;-67
2021/08/04 03:29:54;;;;;;;4.05;2.20;;;;;;;-144.51;100.00;69251.94;4988791;28;20047;-68
2021/08/04 03:32:39;;;;;;;5.70;2.60;;;;;;;-144.51;100.00;69251.94;4991828;28;20054;-68
2021/08/04 03:35:24;;;;;;;7.80;2.10;;;;;;;-144.51;100.00;69251.94;4990873;28;20042;-68
2021/08/04 03:38:09;;;;;;;4.32;2.75;;;;;;;-144.51;100.00;69251.94;4991558;28;20039;-68
2021/08/04 03:40:54;;;;;;;4.75;2.35;;;;;;;-144.51;100.00;69251.94;4990114;28;20046;-68
2021/08/04 03:43:39;;;;;;;5.47;2.10;;;;;;;-144.51;100.00;69251.94;4997317;28;20046;-68
2021/08/04 03:46:24;;;;;;;3.95;2.63;;;;;;;-144.51;100.00;69251.94;4997506;28;20038;-68
2021/08/04 03:49:09;;;;;;;6.63;2.15;;;;;;;-144.51;100.00;69251.94;4993120;28;20039;-68
2021/08/04 03:51:54;;;;;;;3.00;2.13;;;;;;;-144.51;100.00;69251.94;4987410;28;20051;-68
2021/08/04 03:54:39;;;;;;;3.88;2.30;;;;;;;-144.51;100.00;69251.94;4993608;28;20046;-68
2021/08/04 03:57:24;;;;;;;3.03;2.28;;;;;;;-144.51;100.00;69251.94;4997448;28;20050;-68
2021/08/04 04:00:10;;;;;;;9.70;2.65;;;;;;;-144.51;100.00;69251.94;4989003;28;20038;-68
2021/08/04 04:02:58;;;;;;;4.75;2.08;;;;;;;-144.51;100.00;69251.94;4985148;28;20046;-68
2021/08/04 04:05:43;;;;;;;5.25;2.35;;;;;;;-144.51;100.00;69251.94;4991540;28;20050;-68
2021/08/04 04:08:28;;;;;;;5.43;2.17;;;;;;;-144.51;100.00;69251.94;4999648;28;20043;-68
2021/08/04 04:11:13;;;;;;;10.38;3.25;;;;;;;-144.51;100.00;69251.94;4988031;28;20520;-68
2021/08/04 04:13:58;;;;;;;6.88;2.25;;;;;;;-144.51;100.00;69251.94;4998386;28;20038;-68
2021/08/04 04:16:43;;;;;;;4.47;2.38;;;;;;;-144.51;100.00;69251.94;4973744;28;20039;-68
2021/08/04 04:19:28;;;;;;;8.75;2.60;;;;;;;-144.51;100.00;69251.94;4994908;28;20050;-68
2021/08/04 04:22:14;;;;;;;3.28;2.47;;;;;;;-144.51;100.00;69251.94;4987693;28;20494;-68
2021/08/04 04:24:59;;;;;;;9.35;2.63;;;;;;;-144.51;100.00;69251.94;4981205;28;20042;-68
2021/08/04 04:27:44;;;;;;;3.25;2.40;;;;;;;-144.51;100.00;69251.94;4997825;28;20483;-68
2021/08/04 04:30:29;;;;;;;10.85;3.08;;;;;;;-144.51;100.00;69251.94;4982665;28;20030;-67
2021/08/04 04:33:14;;;;;;;6.07;2.88;;;;;;;-144.51;100.00;69251.94;4987638;28;20034;-68
2021/08/04 04:35:59;;;;;;;11.43;3.08;;;;;;;-144.51;100.00;69251.94;4997843;28;20038;-68
2021/08/04 04:38:44;;;;;;;7.57;3.10;;;;;;;-144.51;100.00;69251.94;4985621;28;20057;-67
2021/08/04 04:41:29;;;;;;;6.68;2.97;;;;;;;-144.51;100.00;69251.94;4988748;28;20038;-68
2021/08/04 04:44:14;;;;;;;8.70;3.13;;;;;;;-144.51;100.00;69251.94;4990434;28;20043;-67
2021/08/04 04:46:59;;;;;;;7.32;3.13;;;;;;;-144.51;100.00;69251.94;4987689;28;20493;-68
2021/08/04 04:49:44;;;;;;;13.35;3.67;;;;;;;-144.51;100.00;69251.94;4992370;28;20042;-68
2021/08/04 04:52:29;;;;;;;6.93;3.03;;;;;;;-144.51;100.00;69251.94;4990604;28;20043;-68
2021/08/04 04:55:15;;;;;;;5.38;2.63;;;;;;;-144.51;100.00;69251.94;4994111;28;20050;-69
2021/08/04 04:57:59;;;;;;;7.50;2.92;;;;;;;-144.51;100.00;69251.94;4988347;28;20039;-69
2021/08/04 05:00:44;;;;;;;9.20;2.58;;;;;;;-144.51;100.00;69251.94;4992207;28;20046;-69
2021/08/04 05:03:30;;;;;;;5.03;2.85;;;;;;;-144.51;100.00;69251.94;4993755;28;20046;-68
2021/08/04 05:06:15;;;;;;;5.55;2.80;;;;;;;-144.51;100.00;69251.94;4996762;28;20043;-68
2021/08/04 05:09:00;;;;;;;4.45;2.80;;;;;;;-144.51;100.00;69251.94;4981200;28;20553;-68
2021/08/04 05:11:45;;;;;;;6.78;3.00;;;;;;;-144.51;100.00;69251.94;4991272;28;20038;-68
2021/08/04 05:14:30;;;;;;;9.40;3.45;;;;;;;-144.51;100.00;69251.94;4988074;28;20038;-68
2021/08/04 05:17:15;;;;;;;10.68;3.33;;;;;;;-144.51;100.00;69251.94;4991841;28;20039;-66
2021/08/04 05:20:00;;;;;;;11.63;4.07;;;;;;;-144.51;100.00;69251.94;4990199;28;20490;-68
2021/08/04 05:22:45;;;;;;;9.82;3.38;;;;;;;-144.51;100.00;69251.94;5001032;28;20046;-67
2021/08/04 05:25:30;;;;;;;10.00;2.47;;;;;;;-144.51;100.00;69251.94;4993710;28;20046;-68
2021/08/04 05:28:15;;;;;;;8.88;2.47;;;;;;;-144.51;100.00;69251.94;4993789;28;20046;-68
2021/08/04 05:31:00;;;;;;;14.63;2.50;;;;;;;-144.51;100.00;69251.94;4978519;28;20042;-67
2021/08/04 05:33:45;;;;;;;5.82;2.42;;;;;;;-144.51;100.00;69251.94;4997613;28;20034;-67
2021/08/04 05:36:30;;;;;;;15.15;2.65;;;;;;;-144.51;100.00;69251.94;5000771;28;20042;-68
2021/08/04 05:39:15;;;;;;;11.35;3.22;;;;;;;-144.51;100.00;69251.94;4987180;28;20046;-67
2021/08/04 05:42:00;;;;;;;13.35;3.38;;;;;;;-144.51;100.00;69251.94;4994718;28;20046;-67
2021/08/04 05:44:45;;;;;;;7.03;2.97;;;;;;;-144.51;100.00;69251.94;4995515;28;20042;-68
2021/08/04 05:47:30;;;;;;;13.50;5.05;;;;;;;-144.51;100.00;69251.94;4999577;28;20046;-68
2021/08/04 05:50:15;;;;;;;7.72;3.47;;;;;;;-144.51;100.00;69251.94;4997517;28;20038;-67
2021/08/04 05:53:00;;;;;;;10.60;4.70;;;;;;;-144.51;100.00;69251.94;5000508;28;20042;-68
2021/08/04 05:55:45;;;;;;;5.15;2.50;;;;;;;-144.51;100.00;69251.94;4994000;28;20034;-68
2021/08/04 05:58:30;;;;;;;9.80;4.68;;;;;;;-144.51;100.00;69251.94;4993585;28;20411;-69
2021/08/04 06:01:15;;;;;;;7.07;4.07;;;;;;;-144.51;100.00;69251.94;4992690;28;20042;-68
2021/08/04 06:04:00;;;;;;;15.07;4.35;;;;;;;-144.51;100.00;69251.94;4994808;28;20046;-69
2021/08/04 06:06:45;;;;;;;16.88;5.07;;;;;;;-144.51;100.00;69251.94;5000349;28;20038;-69
2021/08/04 06:09:30;;;;;;;8.57;4.35;;;;;;;-144.51;100.00;69251.94;5000233;28;20046;-69
2021/08/04 06:12:15;;;;;;;8.68;3.13;;;;;;;-144.51;100.00;69251.94;4985862;28;20412;-67
2021/08/04 06:15:02;;;;;;;9.18;3.75;;;;;;;-144.51;100.00;69251.94;4993547;28;20042;-67
2021/08/04 06:17:47;;;;;;;12.60;3.60;;;;;;;-144.51;100.00;69251.94;5000221;28;20042;-68
2021/08/04 06:20:32;;;;;;;22.45;4.38;;;;;;;-144.51;100.00;69251.94;4994414;28;20034;-68
2021/08/04 06:23:17;;;;;;;28.48;4.35;;;;;;;-144.51;100.00;69251.94;4993794;28;20416;-68
2021/08/04 06:26:02;;;;;;;9.50;3.00;;;;;;;-144.51;100.00;69251.94;4992751;28;20054;-68
2021/08/04 06:28:49;;;;;;;3.83;2.33;;;;;;;-144.51;100.00;69251.94;4999502;28;20038;-68
2021/08/04 06:31:33;;;;;;;9.77;2.80;;;;;;;-144.51;100.00;69251.94;4995976;28;20050;-68
2021/08/04 06:34:18;;;;;;;10.35;3.55;;;;;;;-144.51;100.00;69251.94;4996600;28;20408;-68
2021/08/04 06:37:03;;;;;;;7.38;2.97;;;;;;;-144.51;100.00;69251.94;4994766;28;20046;-68
2021/08/04 06:39:48;;;;;;;6.70;2.65;;;;;;;-144.51;100.00;69251.94;4999787;28;20034;-68
2021/08/04 06:42:33;;;;;;;10.10;2.80;;;;;;;-144.51;100.00;69251.94;4989634;28;20050;-69
2021/08/04 06:45:18;;;;;;;10.38;2.60;;;;;;;-144.51;100.00;69251.94;4999729;28;20038;-68
2021/08/04 06:48:07;;;;;;;12.27;2.80;;;;;;;-144.51;100.00;69251.94;4999623;28;20049;-68
2021/08/04 06:50:53;;;;;;;7.80;3.13;;;;;;;-144.51;100.00;69251.94;4994069;28;20068;-67
2021/08/04 06:53:38;;;;;;;7.22;3.03;;;;;;;-144.51;100.00;69251.94;4998252;28;20037;-67
2021/08/04 06:56:23;;;;;;;7.32;2.72;;;;;;;-144.51;100.00;69251.94;4999680;28;20038;-68
2021/08/04 06:59:08;;;;;;;13.07;3.47;;;;;;;-144.51;100.00;69251.94;4996513;28;20038;-68
2021/08/04 07:01:53;;;;;;;10.82;3.15;;;;;;;-144.51;100.00;69251.94;4988831;28;20042;-67
2021/08/04 07:04:38;;;;;;;7.53;2.47;;;;;;;-144.51;100.00;69251.94;4980948;28;20038;-68
2021/08/04 07:07:23;;;;;;;7.35;2.33;;;;;;;-144.51;100.00;69251.94;4999312;28;20050;-68
2021/08/04 07:10:08;;;;;;;8.70;3.63;;;;;;;-144.51;100.00;69251.94;4981753;28;20039;-67
2021/08/04 07:12:53;;;;;;;10.13;3.40;;;;;;;-144.51;100.00;69251.94;4998176;28;20050;-68
2021/08/04 07:15:38;;;;;;;11.30;3.33;;;;;;;-144.51;100.00;69251.94;4996601;28;20038;-67
2021/08/04 07:18:24;;;;;;;7.80;3.60;;;;;;;-144.51;100.00;69251.94;4994868;28;20038;-68
2021/08/04 07:21:09;;;;;;;12.13;3.17;;;;;;;-144.51;100.00;69251.94;4988577;28;20039;-67
2021/08/04 07:23:54;;;;;;;10.82;3.75;;;;;;;-144.51;100.00;69251.94;4997302;28;20444;-68
2021/08/04 07:26:41;;;;;;;9.82;3.95;;;;;;;-144.51;100.00;69251.94;4972718;28;20038;-68
2021/08/04 07:29:27;;;;;;;4.10;2.58;;;;;;;-144.51;100.00;69251.94;4997410;28;20042;-68
2021/08/04 07:32:12;;;;;;;4.80;3.33;;;;;;;-144.51;100.00;69251.94;4993098;28;20046;-68
2021/08/04 07:35:00;;;;;;;13.43;3.28;;;;;;;-144.51;100.00;69251.94;4998704;28;20042;-68
2021/08/04 07:37:45;;;;;;;8.80;2.80;;;;;;;-144.51;100.00;69251.94;4996478;28;20042;-68
2021/08/04 07:40:30;;;;;;;4.82;2.70;;;;;;;-144.51;100.00;69251.94;4997945;28;20504;-68
2021/08/04 07:43:15;;;;;;;8.10;2.78;;;;;;;-144.51;100.00;69251.94;4984437;28;20038;-69
2021/08/04 07:46:00;;;;;;;8.77;3.15;;;;;;;-144.51;100.00;69251.94;4998621;28;20038;-69
2021/08/04 07:48:46;;;;;;;8.32;2.75;;;;;;;-144.51;100.00;69251.94;4998346;28;20046;-69
2021/08/04 07:51:30;;;;;;;10.82;2.60;;;;;;;-144.51;100.00;69251.94;4992584;28;20034;-69
2021/08/04 07:54:15;;;;;;;6.45;2.30;;;;;;;-144.51;100.00;69251.94;4998496;28;20046;-69
2021/08/04 07:57:01;;;;;;;6.03;2.13;;;;;;;-144.51;100.00;69251.94;4995304;28;20042;-67
2021/08/04 07:59:46;;;;;;;5.68;2.35;;;;;;;-144.51;100.00;69251.94;4998524;28;20043;-67
2021/08/04 08:02:31;;;;;;;6.85;3.53;;;;;;;-144.51;100.00;69251.94;4992260;28;20043;-67
2021/08/04 08:05:17;;;;;;;10.68;3.80;;;;;;;-144.51;100.00;69251.94;4998523;28;20065;-66
2021/08/04 08:08:05;;;;;;;7.07;3.13;;;;;;;-144.51;100.00;69251.94;4998617;28;20042;-67
2021/08/04 08:10:51;;;;;;;6.45;3.10;;;;;;;-144.51;100.00;69251.94;4996534;28;20524;-67
2021/08/04 08:13:36;;;;;;;9.32;3.47;;;;;;;-144.51;100.00;69251.94;4998541;28;20412;-68
2021/08/04 08:16:21;;;;;;;9.52;3.75;;;;;;;-144.51;100.00;69251.94;4998440;28;20042;-68
2021/08/04 08:19:06;;;;;;;6.38;3.03;;;;;;;-144.51;100.00;69251.94;4997156;28;20484;-68
2021/08/04 08:21:51;;;;;;;5.40;2.90;;;;;;;-144.51;100.00;69251.94;4993729;28;20488;-68
2021/08/04 08:24:37;;;;;;;8.82;3.75;;;;;;;-144.51;100.00;69251.94;4990401;28;20042;-68
2021/08/04 08:27:22;;;;;;;9.55;3.85;;;;;;;-144.51;100.00;69251.94;4996986;28;20725;-68
2021/08/04 08:30:08;;;;;;;12.25;4.43;;;;;;;-144.51;100.00;69251.94;4986100;28;20042;-67
2021/08/04 08:32:53;;;;;;;8.38;3.28;;;;;;;-144.51;100.00;69251.94;4989125;28;20046;-68
2021/08/04 08:35:38;;;;;;;12.75;2.70;;;;;;;-144.51;100.00;69251.94;4998267;28;20384;-68
2021/08/04 08:38:23;;;;;;;10.20;3.05;;;;;;;-144.51;100.00;69251.94;4995634;28;20046;-67
2021/08/04 08:41:08;;;;;;;10.70;3.10;;;;;;;-144.51;100.00;69251.94;4988738;28;20035;-67
2021/08/04 08:43:53;;;;;;;10.98;2.80;;;;;;;-144.51;100.00;69251.94;4981289;28;20793;-67
2021/08/04 08:46:38;;;;;;;15.40;3.33;;;;;;;-144.51;100.00;69251.94;4987421;28;20038;-68
2021/08/04 08:49:26;;;;;;;7.55;2.60;;;;;;;-144.51;100.00;69251.94;4981716;28;20047;-68
2021/08/04 08:52:11;;;;;;;6.40;2.20;;;;;;;-144.51;100.00;69251.94;4995685;28;20431;-68
2021/08/04 08:55:00;;;;;;;6.32;2.60;;;;;;;-144.51;100.00;69251.94;5001748;28;20038;-67
2021/08/04 08:57:45;;;;;;;31.83;3.60;;;;;;;-144.51;100.00;69251.94;4997084;28;20038;-68
2021/08/04 09:00:30;;;;;;;9.35;2.38;;;;;;;-144.51;100.00;69251.94;5000504;28;20046;-67
2021/08/04 09:03:19;;;;;;;3.80;1.85;;;;;;;-144.51;100.00;69251.94;5001523;28;20034;-67
2021/08/04 09:06:04;;;;;;;7.07;3.40;;;;;;;-144.51;100.00;69251.94;4997261;28;20492;-67
2021/08/04 09:08:49;;;;;;;10.75;3.20;;;;;;;-144.51;100.00;69251.94;4983927;28;20035;-68
2021/08/04 09:11:34;;;;;;;5.80;2.88;;;;;;;-144.51;100.00;69251.94;4991890;28;20042;-68
2021/08/04 09:14:30;;;;;;;7.10;2.28;;;;;;;-144.51;100.00;69251.94;4997298;28;20038;-68
2021/08/04 09:17:16;;;;;;;4.35;1.80;;;;;;;-144.51;100.00;69251.94;5000687;28;20046;-68
2021/08/04 09:20:01;;;;;;;22.65;3.88;;;;;;;-144.51;100.00;69251.94;4988893;28;20035;-68
2021/08/04 09:22:46;;;;;;;11.05;2.97;;;;;;;-144.51;100.00;69251.94;4983360;28;20493;-68
2021/08/04 09:25:31;;;;;;;4.97;1.98;;;;;;;-144.51;100.00;69251.94;4982203;28;20042;-68
2021/08/04 09:28:16;;;;;;;10.05;2.63;;;;;;;-144.51;100.00;69251.94;4995659;28;20046;-68
2021/08/04 09:31:02;;;;;;;12.48;2.25;;;;;;;-144.51;100.00;69251.94;4993922;28;20416;-68
2021/08/04 09:33:48;;;;;;;7.78;3.30;;;;;;;-144.51;100.00;69251.94;4994265;28;20042;-68
2021/08/04 09:36:33;;;;;;;7.13;3.03;;;;;;;-144.51;100.00;69251.94;4998535;28;20038;-68
2021/08/04 09:39:22;;;;;;;8.35;3.05;;;;;;;-144.51;100.00;69251.94;4994790;28;20042;-68
2021/08/04 09:42:09;;;;;;;10.32;3.47;;;;;;;-144.51;100.00;69251.94;4994484;28;20038;-68
2021/08/04 09:44:54;;;;;;;7.28;3.30;;;;;;;-144.51;100.00;69251.94;4998216;28;20046;-68
2021/08/04 09:47:57;;;;;;;8.05;3.28;;;;;;;-144.51;100.00;69251.94;4996566;28;20046;-69
2021/08/04 09:50:55;;;;;;;10.55;2.90;;;;;;;-144.51;100.00;69251.94;4998186;28;20042;-69
2021/08/04 09:53:40;;;;;;;11.45;4.13;;;;;;;-144.51;100.00;69251.94;4998106;28;20500;-69
2021/08/04 09:56:25;;;;;;;11.52;3.85;;;;;;;-144.51;100.00;69251.94;4995021;28;20042;-68
2021/08/04 09:59:10;;;;;;;12.95;4.10;;;;;;;-144.51;100.00;69251.94;4998894;28;20031;-68
2021/08/04 10:01:57;;;;;;;8.95;3.38;;;;;;;-144.51;100.00;69251.94;4995477;28;20050;-68
2021/08/04 10:04:41;;;;;;;13.48;3.70;;;;;;;-144.51;100.00;69251.94;4995107;28;20038;-68
2021/08/04 10:07:26;;;;;;;7.72;3.58;;;;;;;-144.51;100.00;69251.94;5000062;28;20042;-67
2021/08/04 10:10:11;;;;;;;10.35;3.78;;;;;;;-144.51;100.00;69251.94;4997053;28;20035;-68
2021/08/04 10:12:59;;;;;;;7.10;2.63;;;;;;;-144.51;100.00;69251.94;5000026;28;20042;-68
2021/08/04 10:15:51;;;;;;;9.80;4.85;;;;;;;-144.51;100.00;69251.94;4998767;28;20456;-68
2021/08/04 10:18:39;;;;;;;11.68;5.03;;;;;;;-144.51;100.00;69251.94;4989070;28;20047;-68
2021/08/04 10:21:24;;;;;;;8.75;3.95;;;;;;;-144.51;100.00;69251.94;4991251;28;20034;-69
2021/08/04 10:24:11;;;;;;;8.60;3.58;;;;;;;-144.51;100.00;69251.94;4984234;28;20488;-68
2021/08/04 10:26:56;;;;;;;7.25;3.30;;;;;;;-144.51;100.00;69251.94;4996306;28;20038;-68
2021/08/04 10:29:42;;;;;;;7.72;3.70;;;;;;;-144.51;100.00;69251.94;4987324;28;20046;-68
2021/08/04 10:32:32;;;;;;;4.95;2.88;;;;;;;-144.51;100.00;69251.94;4983178;28;20042;-68
2021/08/04 10:35:17;;;;;;;8.27;3.40;;;;;;;-144.51;100.00;69251.94;4994310;28;20420;-68
2021/08/04 10:38:07;;;;;;;13.27;3.03;;;;;;;-144.51;100.00;69251.94;4983746;28;20050;-67
2021/08/04 10:41:22;;;;;;;7.47;3.28;;;;;;;-144.51;100.00;69251.94;4995046;28;20034;-68
2021/08/04 10:44:22;;;;;;;7.38;2.88;;;;;;;-144.51;100.00;69251.94;4987629;28;20042;-67
2021/08/04 10:47:25;;;;;;;5.80;4.03;;;;;;;-144.51;100.00;69251.94;4997933;28;20038;-67
2021/08/04 10:50:11;;;;;;;11.35;4.93;;;;;;;-144.51;100.00;69251.94;4996236;28;20042;-67
2021/08/04 10:52:57;;;;;;;11.00;5.20;;;;;;;-144.51;100.00;69251.94;4992877;28;20423;-67
2021/08/04 10:55:53;;;;;;;10.02;4.13;;;;;;;-144.51;100.00;69251.94;4997479;28;20046;-68
2021/08/04 10:58:38;;;;;;;10.70;5.35;;;;;;;-144.51;100.00;69251.94;4994816;28;20046;-68
2021/08/04 11:01:23;;;;;;;11.68;4.78;;;;;;;-144.51;100.00;69251.94;4992205;28;20033;-68
2021/08/04 11:04:11;;;;;;;12.55;4.25;;;;;;;-144.51;100.00;69251.94;4996153;28;20042;-69
2021/08/04 11:07:08;;;;;;;12.45;4.53;;;;;;;-144.51;100.00;69251.94;4994505;28;20046;-69
2021/08/04 11:09:58;;;;;;;10.82;4.28;;;;;;;-144.51;100.00;69251.94;4997636;28;20050;-68
2021/08/04 11:12:45;;;;;;;11.02;4.53;;;;;;;-144.51;100.00;69251.94;4998902;28;20042;-68
2021/08/04 11:15:31;;;;;;;12.20;4.80;;;;;;;-144.51;100.00;69251.94;4993493;28;20042;-68
2021/08/04 11:18:16;;;;;;;11.80;4.22;;;;;;;-144.51;100.00;69251.94;4996185;28;20051;-68
2021/08/04 11:21:13;;;;;;;9.95;4.53;;;;;;;-144.51;100.00;69251.94;4987483;28;20039;-68
2021/08/04 11:23:59;;;;;;;11.07;4.38;;;;;;;-144.51;100.00;69251.94;4993365;28;20038;-67
2021/08/04 11:27:04;;;;;;;9.63;3.03;;;;;;;-144.51;100.00;69251.94;4998643;28;20042;-68
2021/08/04 11:29:49;;;;;;;15.00;5.70;;;;;;;-144.51;100.00;69251.94;4988991;28;20054;-68
2021/08/04 11:32:34;;;;;;;9.98;4.05;;;;;;;-144.51;100.00;69251.94;4986226;28;20039;-67
2021/08/04 11:35:19;;;;;;;8.75;4.25;;;;;;;-144.51;100.00;69251.94;4994002;28;20050;-68
2021/08/04 11:38:04;;;;;;;11.45;4.75;;;;;;;-144.51;100.00;69251.94;4987427;28;20064;-67
2021/08/04 11:40:49;;;;;;;12.80;3.80;;;;;;;-144.51;100.00;69251.94;4985891;28;20046;-67
2021/08/04 11:43:34;;;;;;;11.35;4.05;;;;;;;-144.51;100.00;69251.94;4991827;28;20034;-67
2021/08/04 11:46:29;;;;;;;6.63;3.75;;;;;;;-144.51;100.00;69251.94;4994519;28;20042;-67
2021/08/04 11:49:29;;;;;;;9.50;3.67;;;;;;;-144.51;100.00;69251.94;4992095;28;20038;-67
2021/08/04 11:52:19;;;;;;;11.13;3.38;;;;;;;-144.51;100.00;69251.94;4992551;28;20042;-67
2021/08/04 11:55:10;;;;;;;7.97;3.55;;;;;;;-144.51;100.00;69251.94;4990182;28;20035;-67
2021/08/04 11:57:58;;;;;;;8.27;4.25;;;;;;;-144.51;100.00;69251.94;4993746;28;20046;-67
2021/08/04 12:00:43;;;;;;;11.38;4.68;;;;;;;-144.51;100.00;69251.94;4994827;28;20034;-67
2021/08/04 12:03:28;;;;;;;8.30;3.83;;;;;;;-144.51;100.00;69251.94;4993123;28;20050;-67
2021/08/04 12:06:18;;;;;;;13.05;4.97;;;;;;;-144.51;100.00;69251.94;4988215;28;20043;-67
2021/08/04 12:09:21;;;;;;;9.75;3.88;;;;;;;-144.51;100.00;69251.94;4993376;28;20042;-67
2021/08/04 12:12:17;;;;;;;9.05;4.43;;;;;;;-144.51;100.00;69251.94;4986068;28;20046;-67
2021/08/04 12:15:13;;;;;;;8.45;4.18;;;;;;;-144.51;100.00;69251.94;4995658;28;20034;-67
2021/08/04 12:18:03;;;;;;;8.55;3.40;;;;;;;-144.51;100.00;69251.94;4990861;28;20051;-67
2021/08/04 12:20:48;;;;;;;13.57;4.40;;;;;;;-144.51;100.00;69251.94;4999702;28;20416;-67
2021/08/04 12:23:33;;;;;;;6.47;3.40;;;;;;;-144.51;100.00;69251.94;4998644;28;20054;-68
2021/08/04 12:26:18;;;;;;;20.10;5.78;;;;;;;-144.51;100.00;69251.94;4996328;28;20043;-67
2021/08/04 12:29:23;;;;;;;9.20;3.97;;;;;;;-144.51;100.00;69251.94;4997908;28;20034;-67
2021/08/04 12:32:21;;;;;;;15.27;4.45;;;;;;;-144.51;100.00;69251.94;4996485;28;20050;-67
2021/08/04 12:35:14;;;;;;;16.52;3.28;;;;;;;-144.51;100.00;69251.94;4993822;28;20515;-67
2021/08/04 12:38:02;;;;;;;10.02;3.45;;;;;;;-144.51;100.00;69251.94;4998755;28;20042;-67